createdAt,value
2022-11-05T00:01:49.681Z,59.35
2022-11-05T00:04:34.972Z,62.33
2022-11-05T00:07:31.346Z,58.85
2022-11-05T00:10:04.137Z,55.80
2022-11-05T00:12:49.548Z,60.60
2022-11-05T00:15:34.814Z,56.15
2022-11-05T00:18:01.318Z,55.90
2022-11-05T00:20:27.858Z,58.10
2022-11-05T00:23:23.329Z,60.72
2022-11-05T00:26:04.177Z,51.88
2022-11-05T00:28:31.927Z,54.38
2022-11-05T00:31:06.028Z,52.42
2022-11-05T00:33:32.848Z,53.03
2022-11-05T00:35:59.336Z,48.22
2022-11-05T00:38:25.833Z,52.10
2022-11-05T00:40:52.330Z,52.30
2022-11-05T00:43:37.440Z,50.00
2022-11-05T00:46:03.968Z,52.08
2022-11-05T00:48:49.037Z,46.85
2022-11-05T00:51:15.840Z,42.28
2022-11-05T00:53:42.711Z,44.50
2022-11-05T00:56:09.368Z,43.53
2022-11-05T00:58:36.067Z,43.88
2022-11-05T01:01:03.574Z,43.53
2022-11-05T01:03:33.488Z,42.97
2022-11-05T01:06:06.385Z,43.67
2022-11-05T01:08:32.963Z,43.22
2022-11-05T01:10:59.764Z,42.88
2022-11-05T01:13:28.868Z,42.45
2022-11-05T01:15:56.664Z,41.60
2022-11-05T01:18:25.359Z,41.05
2022-11-05T01:20:54.595Z,40.55
2022-11-05T01:23:21.485Z,40.45
2022-11-05T01:25:48.244Z,42.05
2022-11-05T01:28:14.770Z,43.85
2022-11-05T01:30:41.345Z,41.47
2022-11-05T01:33:08.139Z,41.83
2022-11-05T01:35:34.845Z,41.13
2022-11-05T01:38:01.406Z,42.20
2022-11-05T01:40:27.904Z,42.20
2022-11-05T01:42:54.406Z,41.38
2022-11-05T01:45:26.342Z,40.28
2022-11-05T01:47:57.793Z,36.97
2022-11-05T01:50:36.120Z,38.20
2022-11-05T01:53:28.795Z,37.25
2022-11-05T01:56:07.177Z,37.72
2022-11-05T01:58:42.560Z,34.75
2022-11-05T02:01:09.417Z,35.05
2022-11-05T02:03:36.089Z,36.55
2022-11-05T02:06:03.305Z,36.90
2022-11-05T02:09:07.275Z,36.13
2022-11-05T02:11:33.824Z,36.85
2022-11-05T02:14:01.074Z,37.25
2022-11-05T02:16:43.843Z,36.75
2022-11-05T02:20:01.334Z,35.67
2022-11-05T02:22:55.093Z,33.85
2022-11-05T02:25:40.761Z,33.90
2022-11-05T02:28:25.513Z,34.80
2022-11-05T02:31:02.375Z,33.85
2022-11-05T02:33:56.811Z,37.45
2022-11-05T02:36:26.006Z,34.83
2022-11-05T02:39:11.996Z,32.55
2022-11-05T02:41:51.657Z,32.05
2022-11-05T02:44:27.472Z,31.75
2022-11-05T02:47:18.307Z,32.85
2022-11-05T02:49:54.005Z,34.50
2022-11-05T02:52:29.132Z,36.50
2022-11-05T02:55:23.516Z,36.92
2022-11-05T02:57:50.019Z,37.78
2022-11-05T03:00:44.497Z,40.40
2022-11-05T03:03:36.717Z,43.07
2022-11-05T03:06:22.941Z,42.95
2022-11-05T03:08:54.289Z,45.33
2022-11-05T03:11:26.005Z,47.35
2022-11-05T03:14:12.816Z,49.80
2022-11-05T03:16:47.620Z,51.88
2022-11-05T03:19:24.332Z,51.92
2022-11-05T03:21:57.545Z,52.45
2022-11-05T03:24:29.622Z,51.00
2022-11-05T03:27:13.488Z,53.00
2022-11-05T03:29:50.637Z,53.90
2022-11-05T03:32:20.778Z,59.00
2022-11-05T03:34:55.084Z,58.30
2022-11-05T03:37:23.629Z,57.55
2022-11-05T03:39:56.796Z,54.60
2022-11-05T03:42:28.312Z,54.22
2022-11-05T03:44:58.753Z,53.88
2022-11-05T03:47:30.878Z,49.25
2022-11-05T03:50:13.176Z,47.17
2022-11-05T03:52:52.056Z,48.38
2022-11-05T03:55:22.573Z,51.53
2022-11-05T03:57:53.821Z,46.90
2022-11-05T04:00:22.196Z,47.10
2022-11-05T04:02:49.025Z,48.03
2022-11-05T04:05:15.842Z,47.00
2022-11-05T04:08:02.721Z,48.42
2022-11-05T04:10:47.514Z,46.67
2022-11-05T04:13:25.754Z,49.72
2022-11-05T04:16:12.227Z,55.55
2022-11-05T04:18:38.860Z,55.65
2022-11-05T04:21:25.322Z,54.88
2022-11-05T04:24:10.207Z,56.47
2022-11-05T04:26:46.584Z,56.53
2022-11-05T04:29:31.873Z,66.15
2022-11-05T04:31:58.399Z,63.05
2022-11-05T04:34:24.971Z,64.68
2022-11-05T04:36:53.227Z,69.00
2022-11-05T04:39:20.702Z,69.05
2022-11-05T04:41:48.723Z,71.07
2022-11-05T04:44:16.099Z,69.53
2022-11-05T04:46:42.925Z,71.28
2022-11-05T04:49:10.646Z,70.60
2022-11-05T04:51:37.156Z,68.75
2022-11-05T04:54:03.846Z,72.22
2022-11-05T04:56:30.380Z,72.82
2022-11-05T04:58:56.870Z,66.85
2022-11-05T05:01:25.212Z,76.03
2022-11-05T05:03:53.889Z,67.20
2022-11-05T05:06:21.411Z,65.40
2022-11-05T05:08:49.472Z,66.95
2022-11-05T05:11:18.373Z,65.15
2022-11-05T05:13:45.220Z,68.97
2022-11-05T05:16:19.784Z,71.00
2022-11-05T05:21:32.456Z,81.70
2022-11-05T05:23:59.065Z,90.80
2022-11-05T05:26:25.623Z,88.55
2022-11-05T05:28:53.781Z,87.05
2022-11-05T05:31:21.393Z,94.15
2022-11-05T05:33:48.333Z,86.70
2022-11-05T05:36:15.003Z,83.90
2022-11-05T05:38:41.497Z,77.97
2022-11-05T05:41:08.057Z,79.95
2022-11-05T05:43:34.733Z,80.45
2022-11-05T05:46:02.864Z,77.00
2022-11-05T05:48:29.592Z,80.35
2022-11-05T05:51:03.728Z,84.25
2022-11-05T05:53:30.545Z,71.55
2022-11-05T05:55:58.328Z,72.97
2022-11-05T05:58:28.934Z,72.07
2022-11-05T06:00:55.587Z,70.22
2022-11-05T06:03:22.098Z,77.88
2022-11-05T06:05:48.697Z,71.13
2022-11-05T06:08:15.344Z,70.68
2022-11-05T06:10:41.864Z,70.35
2022-11-05T06:13:08.668Z,70.45
2022-11-05T06:15:36.183Z,68.25
2022-11-05T06:18:02.885Z,66.85
2022-11-05T06:20:29.390Z,64.32
2022-11-05T06:22:59.214Z,68.07
2022-11-05T06:25:26.080Z,67.07
2022-11-05T06:27:53.752Z,69.10
2022-11-05T06:30:21.734Z,71.28
2022-11-05T06:32:48.315Z,61.78
2022-11-05T06:35:14.897Z,71.63
2022-11-05T06:37:41.447Z,60.33
2022-11-05T06:40:08.945Z,72.93
2022-11-05T06:42:35.495Z,64.47
2022-11-05T06:45:02.221Z,73.15
2022-11-05T06:47:28.727Z,77.07
2022-11-05T06:49:56.800Z,66.18
2022-11-05T06:52:23.347Z,72.07
2022-11-05T06:54:50.116Z,79.65
2022-11-05T06:57:16.679Z,80.53
2022-11-05T06:59:43.201Z,85.65
2022-11-05T07:02:13.640Z,83.10
2022-11-05T07:04:40.305Z,86.65
2022-11-05T07:07:06.784Z,87.60
2022-11-05T07:09:33.314Z,92.63
2022-11-05T07:11:59.817Z,85.90
2022-11-05T07:14:26.368Z,85.60
2022-11-05T07:16:52.832Z,88.20
2022-11-05T07:19:19.326Z,86.03
2022-11-05T07:21:46.006Z,81.85
2022-11-05T07:24:14.375Z,77.22
2022-11-05T07:26:41.721Z,74.35
2022-11-05T07:29:08.262Z,70.15
2022-11-05T07:31:34.789Z,70.32
2022-11-05T07:34:01.615Z,59.78
2022-11-05T07:36:28.089Z,57.25
2022-11-05T07:38:59.871Z,56.70
2022-11-05T07:41:26.951Z,51.03
2022-11-05T07:43:53.549Z,50.78
2022-11-05T07:46:20.062Z,57.80
2022-11-05T07:48:46.608Z,51.67
2022-11-05T07:51:13.097Z,52.13
2022-11-05T07:53:44.056Z,40.28
2022-11-05T07:56:12.906Z,41.90
2022-11-05T07:58:39.401Z,39.67
2022-11-05T08:01:07.210Z,40.13
2022-11-05T08:03:33.975Z,40.35
2022-11-05T08:06:00.706Z,39.30
2022-11-05T08:08:27.277Z,34.88
2022-11-05T08:10:53.798Z,36.08
2022-11-05T08:13:21.369Z,39.67
2022-11-05T08:15:47.985Z,37.15
2022-11-05T08:18:16.845Z,36.45
2022-11-05T08:20:45.112Z,37.28
2022-11-05T08:23:12.550Z,41.90
2022-11-05T08:25:39.906Z,36.92
2022-11-05T08:28:12.845Z,37.42
2022-11-05T08:30:39.645Z,38.95
2022-11-05T08:33:10.070Z,41.10
2022-11-05T08:35:38.563Z,37.20
2022-11-05T08:38:07.395Z,38.47
2022-11-05T08:40:35.862Z,36.05
2022-11-05T08:43:04.269Z,37.38
2022-11-05T08:45:31.412Z,34.85
2022-11-05T08:48:12.300Z,38.63
2022-11-05T08:50:39.238Z,39.25
2022-11-05T08:53:06.557Z,43.97
2022-11-05T08:55:33.881Z,43.83
2022-11-05T08:58:02.901Z,43.47
2022-11-05T09:00:32.597Z,46.05
2022-11-05T09:03:04.617Z,44.40
2022-11-05T09:05:32.505Z,50.30
2022-11-05T09:08:01.388Z,50.72
2022-11-05T09:10:28.587Z,50.15
2022-11-05T09:12:55.474Z,50.42
2022-11-05T09:15:23.241Z,52.42
2022-11-05T09:17:50.107Z,49.38
2022-11-05T09:20:16.689Z,49.33
2022-11-05T09:22:43.666Z,52.53
2022-11-05T09:25:10.861Z,51.58
2022-11-05T09:27:37.334Z,47.83
2022-11-05T09:30:04.627Z,50.10
2022-11-05T09:32:32.060Z,48.60
2022-11-05T09:35:00.401Z,46.20
2022-11-05T09:37:28.233Z,47.60
2022-11-05T09:39:55.803Z,48.47
2022-11-05T09:42:29.225Z,48.75
2022-11-05T09:45:03.536Z,49.33
2022-11-05T09:47:34.992Z,49.60
2022-11-05T09:50:06.761Z,45.97
2022-11-05T09:52:34.535Z,47.85
2022-11-05T09:55:04.201Z,45.10
2022-11-05T09:57:52.138Z,46.28
2022-11-05T10:00:20.341Z,45.03
2022-11-05T10:02:52.580Z,46.75
2022-11-05T10:05:20.849Z,48.80
2022-11-05T10:07:51.197Z,51.38
2022-11-05T10:11:02.441Z,49.50
2022-11-05T10:13:37.779Z,51.00
2022-11-05T10:16:15.946Z,52.15
2022-11-05T10:18:48.089Z,46.88
2022-11-05T10:21:27.772Z,49.78
2022-11-05T10:24:13.819Z,46.00
2022-11-05T10:26:40.311Z,45.75
2022-11-05T10:29:06.965Z,45.97
2022-11-05T10:31:37.162Z,40.88
2022-11-05T10:34:07.080Z,43.40
2022-11-05T10:36:36.728Z,42.65
2022-11-05T10:39:13.049Z,42.88
2022-11-05T10:41:57.968Z,39.15
2022-11-05T10:47:14.490Z,39.17
2022-11-05T10:50:02.443Z,40.40
2022-11-05T10:52:36.730Z,46.08
2022-11-05T10:55:18.707Z,41.00
2022-11-05T10:57:48.021Z,44.88
2022-11-05T11:00:21.495Z,49.70
2022-11-05T11:02:59.113Z,67.57
2022-11-05T11:05:31.714Z,84.00
2022-11-05T11:08:13.140Z,85.78
2022-11-05T11:10:51.164Z,130.27
2022-11-05T11:13:21.095Z,112.10
2022-11-05T11:15:50.705Z,117.60
2022-11-05T11:18:40.077Z,142.85
2022-11-05T11:21:16.254Z,137.73
2022-11-05T11:23:43.871Z,112.38
2022-11-05T11:26:12.940Z,94.95
2022-11-05T11:28:55.719Z,81.95
2022-11-05T11:31:25.408Z,79.00
2022-11-05T11:34:00.865Z,107.05
2022-11-05T11:36:34.703Z,60.13
2022-11-05T11:39:04.445Z,46.55
2022-11-05T11:41:44.147Z,59.78
2022-11-05T11:44:27.317Z,30.48
2022-11-05T11:46:57.306Z,29.05
2022-11-05T11:49:31.204Z,28.52
2022-11-05T11:52:03.305Z,17.70
2022-11-05T11:54:32.360Z,20.77
2022-11-05T11:56:58.857Z,19.63
2022-11-05T11:59:53.828Z,18.35
2022-11-05T12:02:17.687Z,19.00
2022-11-05T12:05:01.916Z,16.90
2022-11-05T12:07:45.133Z,17.95
2022-11-05T12:10:51.282Z,18.77
2022-11-05T12:13:20.735Z,18.00
2022-11-05T12:15:54.404Z,16.20
2022-11-05T12:18:48.826Z,17.30
2022-11-05T12:21:50.944Z,17.27
2022-11-05T12:24:34.155Z,16.83
2022-11-05T12:27:30.070Z,17.77
2022-11-05T12:30:09.429Z,19.10
2022-11-05T12:32:45.709Z,17.27
2022-11-05T12:35:18.932Z,18.17
2022-11-05T12:38:12.865Z,19.55
2022-11-05T12:41:07.443Z,22.02
2022-11-05T12:43:48.706Z,22.90
2022-11-05T12:46:36.235Z,20.90
2022-11-05T12:49:31.192Z,22.10
2022-11-05T12:52:35.402Z,22.80
2022-11-05T12:55:24.048Z,21.48
2022-11-05T12:57:54.521Z,21.30
2022-11-05T13:00:22.916Z,20.45
2022-11-05T13:03:19.832Z,24.80
2022-11-05T13:05:48.394Z,24.65
2022-11-05T13:08:21.661Z,24.65
2022-11-05T13:11:17.237Z,22.95
2022-11-05T13:13:58.521Z,24.45
2022-11-05T13:16:30.892Z,23.65
2022-11-05T13:19:24.289Z,25.92
2022-11-05T13:21:56.420Z,25.95
2022-11-05T13:24:28.402Z,28.10
2022-11-05T13:27:16.373Z,25.70
2022-11-05T13:29:52.630Z,31.73
2022-11-05T13:32:24.940Z,42.72
2022-11-05T13:34:55.108Z,37.22
2022-11-05T13:37:48.311Z,43.95
2022-11-05T13:40:18.980Z,48.03
2022-11-05T13:43:20.819Z,60.92
2022-11-05T13:46:06.142Z,74.28
2022-11-05T13:49:05.529Z,94.78
2022-11-05T13:51:54.073Z,104.40
2022-11-05T13:54:26.568Z,107.40
2022-11-05T13:57:30.717Z,107.38
2022-11-05T14:00:16.393Z,119.65
2022-11-05T14:02:56.896Z,125.68
2022-11-05T14:05:37.189Z,126.80
2022-11-05T14:08:18.728Z,127.70
2022-11-05T14:10:58.133Z,135.13
2022-11-05T14:13:35.005Z,137.85
2022-11-05T14:16:08.972Z,130.27
2022-11-05T14:18:39.883Z,135.70
2022-11-05T14:21:31.125Z,141.57
2022-11-05T14:23:59.932Z,144.45
2022-11-05T14:26:29.110Z,143.93
2022-11-05T14:28:58.547Z,143.55
2022-11-05T14:34:48.547Z,141.73
2022-11-05T14:37:22.484Z,142.02
2022-11-05T14:39:49.742Z,142.40
2022-11-05T14:42:29.535Z,134.07
2022-11-05T14:45:20.843Z,145.18
2022-11-05T14:47:57.410Z,144.88
2022-11-05T14:50:38.863Z,136.57
2022-11-05T14:53:38.352Z,146.68
2022-11-05T14:56:12.044Z,142.45
2022-11-05T14:58:41.068Z,143.53
2022-11-05T15:01:29.780Z,149.55
2022-11-05T15:04:17.431Z,145.65
2022-11-05T15:07:22.127Z,139.45
2022-11-05T15:10:01.474Z,142.50
2022-11-05T15:12:44.821Z,144.07
2022-11-05T15:15:29.737Z,144.77
2022-11-05T15:20:39.915Z,118.25
2022-11-05T15:23:12.884Z,127.55
2022-11-05T15:26:07.453Z,137.07
2022-11-05T15:28:46.370Z,132.10
2022-11-05T15:31:12.832Z,133.82
2022-11-05T15:33:41.726Z,134.40
2022-11-05T15:36:09.622Z,136.15
2022-11-05T15:38:36.163Z,138.48
2022-11-05T15:41:15.945Z,145.07
2022-11-05T15:43:48.063Z,140.75
2022-11-05T15:46:20.352Z,135.50
2022-11-05T15:48:49.817Z,143.43
2022-11-05T15:51:23.093Z,144.50
2022-11-05T15:54:23.802Z,143.65
2022-11-05T15:56:40.106Z,130.57
2022-11-05T15:59:28.449Z,136.48
2022-11-05T16:01:56.821Z,137.68
2022-11-05T16:04:28.712Z,141.77
2022-11-05T16:06:59.259Z,137.63
2022-11-05T16:09:34.749Z,128.82
2022-11-05T16:12:19.748Z,135.50
2022-11-05T16:15:08.088Z,126.50
2022-11-05T16:17:37.640Z,127.50
2022-11-05T16:20:38.730Z,128.07
2022-11-05T16:23:24.070Z,115.03
2022-11-05T16:25:51.068Z,112.97
2022-11-05T16:28:25.177Z,116.00
2022-11-05T16:31:00.580Z,118.07
2022-11-05T16:33:33.352Z,118.95
2022-11-05T16:35:59.933Z,116.40
2022-11-05T16:38:26.427Z,122.28
2022-11-05T16:40:52.915Z,113.78
2022-11-05T16:43:22.158Z,117.13
2022-11-05T16:45:48.756Z,118.18
2022-11-05T16:48:16.674Z,118.53
2022-11-05T16:50:43.434Z,121.05
2022-11-05T16:53:10.161Z,117.95
2022-11-05T16:55:38.801Z,123.43
2022-11-05T16:58:07.261Z,120.22
2022-11-05T17:00:33.985Z,116.22
2022-11-05T17:03:00.651Z,112.15
2022-11-05T17:05:29.861Z,121.65
2022-11-05T17:07:56.534Z,125.90
2022-11-05T17:10:24.986Z,124.78
2022-11-05T17:12:51.616Z,119.38
2022-11-05T17:15:25.950Z,109.90
2022-11-05T17:17:54.027Z,109.60
2022-11-05T17:20:32.505Z,111.75
2022-11-05T17:23:04.105Z,98.68
2022-11-05T17:25:31.113Z,97.35
2022-11-05T17:27:58.701Z,99.72
2022-11-05T17:30:25.318Z,91.07
2022-11-05T17:32:52.046Z,78.93
2022-11-05T17:35:19.085Z,70.07
2022-11-05T17:37:45.966Z,81.10
2022-11-05T17:40:16.451Z,79.03
2022-11-05T17:42:43.563Z,66.82
2022-11-05T17:45:11.693Z,67.63
2022-11-05T17:47:39.360Z,60.03
2022-11-05T17:50:08.080Z,64.47
2022-11-05T17:52:34.585Z,59.95
2022-11-05T17:55:01.354Z,60.13
2022-11-05T17:57:27.857Z,54.90
2022-11-05T17:59:54.406Z,51.38
2022-11-05T18:02:21.116Z,51.92
2022-11-05T18:04:47.774Z,49.17
2022-11-05T18:07:15.067Z,48.83
2022-11-05T18:09:42.058Z,48.85
2022-11-05T18:12:08.574Z,48.03
2022-11-05T18:14:35.097Z,49.50
2022-11-05T18:17:01.655Z,45.15
2022-11-05T18:19:28.245Z,42.72
2022-11-05T18:21:55.817Z,45.15
2022-11-05T18:24:22.880Z,43.42
2022-11-05T18:26:49.874Z,43.20
2022-11-05T18:29:16.566Z,42.63
2022-11-05T18:31:43.083Z,42.90
2022-11-05T18:34:10.404Z,43.30
2022-11-05T18:36:36.981Z,40.78
2022-11-05T18:39:05.187Z,41.70
2022-11-05T18:41:31.798Z,41.38
2022-11-05T18:43:59.979Z,41.15
2022-11-05T18:46:56.055Z,40.65
2022-11-05T18:49:14.393Z,41.20
2022-11-05T18:51:41.172Z,43.03
2022-11-05T18:54:08.582Z,41.72
2022-11-05T18:56:35.657Z,42.17
2022-11-05T18:59:30.146Z,44.10
2022-11-05T19:01:48.872Z,43.22
2022-11-05T19:04:15.481Z,43.22
2022-11-05T19:06:42.589Z,43.85
2022-11-05T19:09:12.031Z,44.28
2022-11-05T19:11:39.714Z,46.45
2022-11-05T19:14:06.297Z,45.13
2022-11-05T19:16:33.214Z,44.15
2022-11-05T19:19:02.368Z,43.63
2022-11-05T19:21:29.040Z,45.03
2022-11-05T19:24:00.150Z,46.97
2022-11-05T19:26:28.979Z,43.65
2022-11-05T19:28:58.786Z,46.55
2022-11-05T19:31:25.317Z,44.17
2022-11-05T19:33:52.817Z,46.00
2022-11-05T19:36:22.132Z,46.55
2022-11-05T19:38:53.234Z,46.50
2022-11-05T19:41:19.923Z,47.42
2022-11-05T19:43:46.768Z,46.83
2022-11-05T19:46:16.389Z,47.45
2022-11-05T19:48:44.193Z,46.28
2022-11-05T19:51:17.455Z,46.72
2022-11-05T19:53:43.992Z,45.83
2022-11-05T19:56:16.435Z,46.17
2022-11-05T19:58:43.874Z,44.97
2022-11-05T20:01:12.517Z,46.90
2022-11-05T20:03:39.650Z,46.72
2022-11-05T20:06:09.168Z,49.13
2022-11-05T20:08:47.787Z,47.35
2022-11-05T20:11:23.017Z,46.17
2022-11-05T20:13:49.604Z,46.92
2022-11-05T20:16:26.575Z,49.13
2022-11-05T20:18:53.275Z,46.83
2022-11-05T20:21:20.176Z,49.28
2022-11-05T20:23:47.608Z,49.97
2022-11-05T20:26:14.956Z,48.85
2022-11-05T20:28:43.787Z,49.08
2022-11-05T20:31:13.569Z,48.35
2022-11-05T20:33:41.142Z,49.78
2022-11-05T20:36:12.532Z,50.92
2022-11-05T20:38:39.442Z,49.65
2022-11-05T20:41:10.741Z,50.63
2022-11-05T20:43:38.752Z,49.53
2022-11-05T20:46:05.334Z,52.55
2022-11-05T20:48:34.893Z,52.88
2022-11-05T20:51:10.233Z,51.50
2022-11-05T20:53:37.707Z,49.92
2022-11-05T20:56:08.494Z,51.30
2022-11-05T20:58:36.656Z,51.80
2022-11-05T21:01:04.937Z,51.10
2022-11-05T21:03:31.489Z,54.33
2022-11-05T21:05:59.989Z,51.95
2022-11-05T21:08:29.417Z,51.33
2022-11-05T21:10:56.812Z,50.70
2022-11-05T21:13:24.138Z,50.22
2022-11-05T21:15:53.055Z,52.60
2022-11-05T21:18:21.207Z,50.40
2022-11-05T21:20:48.130Z,49.83
2022-11-05T21:23:15.492Z,52.13
2022-11-05T21:25:43.059Z,49.08
2022-11-05T21:28:11.467Z,49.85
2022-11-05T21:30:41.799Z,48.90
2022-11-05T21:33:08.926Z,51.72
2022-11-05T21:35:40.508Z,53.30
2022-11-05T21:38:10.289Z,50.22
2022-11-05T21:40:37.434Z,50.38
2022-11-05T21:43:05.324Z,51.10
2022-11-05T21:45:31.833Z,49.25
2022-11-05T21:47:58.524Z,49.28
2022-11-05T21:50:45.244Z,50.47
2022-11-05T21:53:34.693Z,47.83
2022-11-05T21:56:24.541Z,49.13
2022-11-05T21:59:09.876Z,50.15
2022-11-05T22:01:36.494Z,49.42
2022-11-05T22:04:03.512Z,47.30
2022-11-05T22:06:33.047Z,47.65
2022-11-05T22:08:59.882Z,50.13
2022-11-05T22:11:26.386Z,48.30
2022-11-05T22:13:53.180Z,49.33
2022-11-05T22:16:19.750Z,48.58
2022-11-05T22:18:46.340Z,49.13
2022-11-05T22:21:18.442Z,48.30
2022-11-05T22:23:45.063Z,47.97
2022-11-05T22:26:11.629Z,51.30
2022-11-05T22:28:38.099Z,51.33
2022-11-05T22:31:04.637Z,50.83
2022-11-05T22:33:31.567Z,53.28
2022-11-05T22:35:58.093Z,52.03
2022-11-05T22:38:24.590Z,53.42
2022-11-05T22:40:51.069Z,49.72
2022-11-05T22:43:17.583Z,50.75
2022-11-05T22:45:44.142Z,53.17
2022-11-05T22:48:11.004Z,51.63
2022-11-05T22:50:38.158Z,49.72
2022-11-05T22:53:04.654Z,47.95
2022-11-05T22:55:31.208Z,48.75
2022-11-05T22:57:57.723Z,48.55
2022-11-05T23:00:35.851Z,48.90
2022-11-05T23:03:03.030Z,48.85
2022-11-05T23:05:30.067Z,48.05
2022-11-05T23:08:15.391Z,50.10
2022-11-05T23:11:00.843Z,46.95
2022-11-05T23:13:27.399Z,44.78
2022-11-05T23:16:12.449Z,51.03
2022-11-05T23:18:57.337Z,46.35
2022-11-05T23:24:08.794Z,39.07
2022-11-05T23:26:50.265Z,43.60
2022-11-05T23:29:19.253Z,43.88
2022-11-05T23:32:04.057Z,45.97
2022-11-05T23:34:30.624Z,42.40
2022-11-05T23:37:16.265Z,44.13
2022-11-05T23:39:43.122Z,46.78
2022-11-05T23:42:29.212Z,44.80
2022-11-05T23:45:14.786Z,44.58
2022-11-05T23:48:00.754Z,44.50
2022-11-05T23:50:27.983Z,45.63
2022-11-05T23:52:55.570Z,44.70
2022-11-05T23:55:23.253Z,44.15
2022-11-05T23:57:50.317Z,45.03
